Terminal Aerodrome Forecast
Issued by NWS Grand Forks, ND

Home | Current Version | Previous Version | Text Only | Print | Product List | Glossary Off
Versions: 1 2 3 4 5 6 7 8 9 10 11 12 13

098
FTUS43 KFGF 171721
TAFFAR
TAF
KFAR 171721Z 1718/1818 08008KT P6SM SCT200
     FM180200 06006KT P6SM BKN100
     FM181400 03007KT P6SM BKN050=

USA.gov is the U.S. government's official web portal to all federal, state and local government web resources and services.